createdAt,value
2023-05-21T00:01:54.794Z,4.97
2023-05-21T00:04:23.571Z,4.53
2023-05-21T00:06:52.466Z,5.30
2023-05-21T00:09:21.921Z,5.00
2023-05-21T00:11:50.815Z,5.43
2023-05-21T00:14:20.845Z,5.10
2023-05-21T00:16:49.870Z,4.70
2023-05-21T00:19:18.932Z,5.50
2023-05-21T00:21:47.744Z,5.27
2023-05-21T00:24:16.545Z,5.20
2023-05-21T00:26:45.646Z,4.90
2023-05-21T00:29:14.593Z,4.80
2023-05-21T00:31:44.728Z,5.10
2023-05-21T00:34:15.680Z,5.27
2023-05-21T00:36:46.311Z,4.87
2023-05-21T00:39:16.985Z,4.70
2023-05-21T00:41:49.304Z,4.67
2023-05-21T00:44:21.629Z,5.10
2023-05-21T00:46:56.354Z,5.30
2023-05-21T00:49:26.865Z,4.50
2023-05-21T00:51:57.110Z,4.53
2023-05-21T00:54:31.710Z,4.63
2023-05-21T00:57:02.160Z,4.60
2023-05-21T00:59:32.065Z,4.80
2023-05-21T01:02:05.391Z,4.83
2023-05-21T01:04:38.513Z,5.10
2023-05-21T01:07:10.157Z,4.73
2023-05-21T01:09:39.685Z,4.50
2023-05-21T01:12:10.668Z,5.07
2023-05-21T01:14:40.120Z,5.10
2023-05-21T01:17:10.613Z,5.70
2023-05-21T01:19:39.172Z,4.97
2023-05-21T01:22:08.448Z,5.20
2023-05-21T01:24:38.642Z,5.20
2023-05-21T01:27:07.850Z,5.17
2023-05-21T01:29:36.457Z,5.33
2023-05-21T01:32:06.868Z,5.40
2023-05-21T01:34:36.869Z,5.77
2023-05-21T01:37:09.169Z,5.33
2023-05-21T01:39:40.040Z,5.20
2023-05-21T01:42:10.401Z,5.53
2023-05-21T01:44:39.115Z,5.47
2023-05-21T01:47:07.788Z,5.20
2023-05-21T01:49:37.325Z,5.40
2023-05-21T01:52:06.129Z,5.40
2023-05-21T01:54:34.874Z,5.67
2023-05-21T01:57:04.699Z,5.77
2023-05-21T01:59:33.384Z,5.73
2023-05-21T02:02:02.371Z,5.10
2023-05-21T02:04:31.570Z,5.33
2023-05-21T02:07:00.255Z,5.90
2023-05-21T02:09:28.727Z,5.67
2023-05-21T02:11:58.255Z,5.73
2023-05-21T02:14:29.877Z,5.93
2023-05-21T02:16:58.453Z,5.67
2023-05-21T02:19:27.176Z,5.50
2023-05-21T02:21:56.363Z,5.70
2023-05-21T02:24:25.678Z,5.67
2023-05-21T02:26:54.406Z,6.37
2023-05-21T02:29:23.033Z,5.37
2023-05-21T02:31:53.058Z,6.17
2023-05-21T02:34:21.689Z,5.50
2023-05-21T02:36:52.421Z,5.60
2023-05-21T02:39:21.070Z,6.07
2023-05-21T02:41:50.469Z,6.07
2023-05-21T02:44:20.959Z,5.83
2023-05-21T02:46:49.436Z,5.77
2023-05-21T02:49:19.406Z,6.07
2023-05-21T02:51:48.255Z,5.67
2023-05-21T02:54:16.826Z,6.47
2023-05-21T02:56:45.496Z,6.07
2023-05-21T02:59:14.095Z,6.17
2023-05-21T03:01:45.104Z,5.97
2023-05-21T03:04:13.720Z,5.87
2023-05-21T03:06:44.635Z,6.17
2023-05-21T03:09:13.324Z,6.27
2023-05-21T03:11:41.941Z,6.63
2023-05-21T03:14:11.015Z,5.90
2023-05-21T03:16:41.900Z,6.43
2023-05-21T03:19:17.204Z,6.50
2023-05-21T03:21:49.095Z,6.20
2023-05-21T03:24:17.579Z,5.97
2023-05-21T03:26:48.147Z,6.50
2023-05-21T03:29:16.625Z,6.20
2023-05-21T03:31:45.142Z,6.30
2023-05-21T03:34:13.625Z,5.80
2023-05-21T03:36:42.332Z,6.30
2023-05-21T03:39:12.341Z,6.30
2023-05-21T03:41:40.819Z,6.43
2023-05-21T03:44:09.388Z,6.13
2023-05-21T03:46:38.035Z,6.80
2023-05-21T03:49:06.972Z,6.33
2023-05-21T03:51:35.435Z,6.43
2023-05-21T03:54:04.100Z,6.93
2023-05-21T03:56:34.326Z,6.07
2023-05-21T03:59:02.914Z,6.80
2023-05-21T04:01:33.080Z,6.30
2023-05-21T04:04:01.709Z,6.57
2023-05-21T04:06:30.839Z,5.90
2023-05-21T04:08:59.496Z,6.67
2023-05-21T04:11:27.966Z,6.83
2023-05-21T04:13:57.917Z,6.97
2023-05-21T04:16:26.453Z,6.73
2023-05-21T04:18:56.541Z,6.80
2023-05-21T04:21:25.112Z,6.60
2023-05-21T04:23:54.521Z,6.67
2023-05-21T04:26:23.061Z,6.57
2023-05-21T04:28:51.653Z,6.90
2023-05-21T04:31:21.952Z,7.20
2023-05-21T04:33:50.981Z,6.43
2023-05-21T04:36:19.371Z,6.90
2023-05-21T04:38:49.052Z,7.07
2023-05-21T04:41:19.135Z,6.77
2023-05-21T04:43:47.817Z,6.70
2023-05-21T04:46:16.529Z,7.13
2023-05-21T04:48:46.924Z,6.50
2023-05-21T04:51:15.456Z,6.07
2023-05-21T04:53:44.029Z,6.33
2023-05-21T04:56:12.560Z,6.13
2023-05-21T04:58:41.788Z,6.80
2023-05-21T05:01:10.427Z,6.70
2023-05-21T05:03:38.914Z,6.40
2023-05-21T05:06:09.013Z,6.90
2023-05-21T05:08:37.407Z,6.70
2023-05-21T05:11:06.191Z,7.23
2023-05-21T05:13:34.784Z,6.70
2023-05-21T05:16:03.369Z,6.33
2023-05-21T05:18:31.943Z,6.63
2023-05-21T05:21:00.574Z,6.23
2023-05-21T05:23:30.628Z,6.93
2023-05-21T05:25:59.120Z,6.67
2023-05-21T05:28:27.585Z,6.87
2023-05-21T05:30:56.285Z,6.70
2023-05-21T05:33:24.887Z,6.50
2023-05-21T05:35:53.927Z,6.93
2023-05-21T05:38:22.751Z,6.87
2023-05-21T05:40:52.591Z,7.17
2023-05-21T05:43:21.321Z,6.20
2023-05-21T05:45:49.776Z,6.13
2023-05-21T05:48:18.529Z,6.97
2023-05-21T05:50:47.695Z,5.93
2023-05-21T05:53:16.321Z,6.20
2023-05-21T05:55:44.858Z,6.50
2023-05-21T05:58:14.695Z,7.40
2023-05-21T06:00:43.250Z,6.30
2023-05-21T06:03:12.814Z,6.30
2023-05-21T06:05:41.400Z,6.23
2023-05-21T06:08:09.815Z,6.07
2023-05-21T06:10:38.318Z,6.87
2023-05-21T06:13:06.814Z,5.73
2023-05-21T06:15:37.124Z,5.93
2023-05-21T06:18:05.768Z,6.13
2023-05-21T06:20:34.267Z,6.57
2023-05-21T06:23:02.700Z,6.73
2023-05-21T06:25:31.998Z,6.23
2023-05-21T06:28:00.676Z,6.00
2023-05-21T06:30:29.322Z,6.60
2023-05-21T06:32:59.326Z,6.03
2023-05-21T06:35:28.071Z,6.83
2023-05-21T06:37:56.699Z,6.33
2023-05-21T06:40:25.242Z,6.10
2023-05-21T06:42:53.806Z,6.53
2023-05-21T06:45:22.376Z,6.30
2023-05-21T06:47:51.051Z,6.53
2023-05-21T06:50:21.897Z,6.77
2023-05-21T06:52:50.467Z,6.83
2023-05-21T06:55:18.914Z,6.70
2023-05-21T06:57:47.503Z,6.67
2023-05-21T07:00:16.259Z,6.60
2023-05-21T07:02:44.814Z,6.90
2023-05-21T07:05:13.365Z,7.43
2023-05-21T07:07:43.309Z,7.07
2023-05-21T07:10:12.200Z,6.80
2023-05-21T07:12:41.440Z,7.33
2023-05-21T07:15:10.345Z,6.73
2023-05-21T07:17:38.967Z,7.57
2023-05-21T07:20:10.216Z,7.70
2023-05-21T07:22:40.085Z,8.47
2023-05-21T07:25:11.102Z,7.67
2023-05-21T07:27:40.747Z,7.30
2023-05-21T07:30:09.990Z,7.27
2023-05-21T07:32:38.523Z,7.60
2023-05-21T07:35:08.452Z,7.00
2023-05-21T07:37:37.155Z,7.77
2023-05-21T07:40:06.487Z,7.33
2023-05-21T07:42:36.409Z,8.17
2023-05-21T07:45:05.175Z,7.10
2023-05-21T07:47:33.693Z,6.93
2023-05-21T07:50:02.502Z,6.97
2023-05-21T07:52:31.156Z,6.60
2023-05-21T07:54:59.613Z,7.07
2023-05-21T07:57:28.226Z,7.40
2023-05-21T07:59:58.503Z,6.97
2023-05-21T08:02:27.293Z,6.90
2023-05-21T08:04:56.184Z,6.93
2023-05-21T08:07:24.608Z,6.50
2023-05-21T08:09:54.178Z,6.60
2023-05-21T08:12:22.854Z,6.87
2023-05-21T08:14:51.491Z,6.80
2023-05-21T08:17:21.369Z,6.70
2023-05-21T08:19:49.985Z,6.90
2023-05-21T08:22:18.532Z,6.90
2023-05-21T08:24:46.925Z,6.90
2023-05-21T08:27:16.583Z,6.80
2023-05-21T08:29:45.082Z,7.07
2023-05-21T08:32:13.748Z,6.70
2023-05-21T08:34:43.786Z,7.27
2023-05-21T08:37:12.435Z,6.73
2023-05-21T08:39:41.068Z,6.97
2023-05-21T08:42:13.050Z,7.60
2023-05-21T08:44:42.248Z,6.67
2023-05-21T08:47:10.828Z,6.67
2023-05-21T08:49:39.438Z,6.83
2023-05-21T08:52:09.354Z,7.47
2023-05-21T08:54:39.907Z,6.10
2023-05-21T08:57:08.322Z,7.07
2023-05-21T08:59:39.989Z,6.63
2023-05-21T09:02:08.803Z,6.90
2023-05-21T09:04:38.919Z,6.93
2023-05-21T09:07:08.989Z,7.13
2023-05-21T09:09:39.543Z,6.40
2023-05-21T09:12:08.777Z,6.50
2023-05-21T09:14:37.548Z,6.53
2023-05-21T09:17:09.795Z,6.40
2023-05-21T09:19:38.871Z,6.50
2023-05-21T09:22:09.323Z,6.43
2023-05-21T09:24:38.097Z,7.07
2023-05-21T09:27:09.844Z,6.43
2023-05-21T09:29:40.258Z,6.37
2023-05-21T09:32:09.575Z,5.73
2023-05-21T09:34:39.402Z,6.00
2023-05-21T09:37:23.828Z,6.30
2023-05-21T09:39:58.364Z,6.90
2023-05-21T09:42:27.335Z,6.13
2023-05-21T09:44:56.138Z,6.20
2023-05-21T09:47:26.017Z,6.70
2023-05-21T09:49:55.856Z,5.87
2023-05-21T09:52:30.685Z,5.93
2023-05-21T09:55:00.298Z,6.30
2023-05-21T09:57:28.905Z,6.63
2023-05-21T09:59:57.455Z,6.03
2023-05-21T10:02:26.916Z,7.00
2023-05-21T10:04:55.764Z,6.27
2023-05-21T10:07:27.495Z,6.47
2023-05-21T10:09:58.440Z,6.53
2023-05-21T10:12:27.521Z,5.97
2023-05-21T10:15:00.719Z,6.30
2023-05-21T10:17:32.162Z,5.90
2023-05-21T10:20:01.213Z,5.83
2023-05-21T10:22:33.157Z,6.13
2023-05-21T10:25:03.976Z,6.00
2023-05-21T10:27:33.055Z,5.40
2023-05-21T10:30:03.321Z,6.23
2023-05-21T10:32:35.927Z,5.67
2023-05-21T10:35:05.989Z,5.77
2023-05-21T10:37:34.672Z,5.93
2023-05-21T10:40:05.286Z,6.30
2023-05-21T10:42:51.735Z,6.13
2023-05-21T10:45:23.318Z,6.30
2023-05-21T10:48:03.120Z,5.40
2023-05-21T10:50:41.164Z,5.93
2023-05-21T10:53:13.489Z,5.77
2023-05-21T10:55:48.970Z,6.20
2023-05-21T10:58:27.387Z,5.60
2023-05-21T11:00:58.221Z,6.33
2023-05-21T11:03:27.884Z,4.97
2023-05-21T11:05:57.776Z,4.87
2023-05-21T11:08:26.771Z,5.33
2023-05-21T11:10:58.399Z,5.17
2023-05-21T11:13:27.971Z,5.37
2023-05-21T11:16:09.260Z,5.27
2023-05-21T11:18:57.520Z,5.03
2023-05-21T11:21:28.615Z,4.97
2023-05-21T11:24:15.996Z,4.47
2023-05-21T11:27:12.613Z,4.30
2023-05-21T11:29:44.328Z,4.90
2023-05-21T11:32:13.381Z,4.90
2023-05-21T11:34:42.171Z,4.23
2023-05-21T11:37:31.309Z,4.93
2023-05-21T11:40:00.408Z,4.47
2023-05-21T11:42:32.727Z,5.23
2023-05-21T11:45:02.641Z,4.97
2023-05-21T11:47:32.266Z,4.83
2023-05-21T11:50:01.083Z,4.90
2023-05-21T11:52:30.380Z,4.77
2023-05-21T11:54:59.732Z,5.00
2023-05-21T11:57:30.984Z,5.53
2023-05-21T12:00:00.761Z,4.83
2023-05-21T12:02:33.091Z,4.67
2023-05-21T12:05:03.045Z,5.40
2023-05-21T12:07:31.764Z,5.27
2023-05-21T12:10:03.456Z,4.93
2023-05-21T12:12:49.988Z,4.33
2023-05-21T12:15:22.841Z,4.10
2023-05-21T12:17:53.271Z,4.80
2023-05-21T12:20:21.880Z,4.50
2023-05-21T12:22:50.588Z,4.40
2023-05-21T12:25:20.541Z,5.27
2023-05-21T12:27:50.497Z,5.57
2023-05-21T12:30:18.922Z,4.90
2023-05-21T12:32:47.574Z,4.93
2023-05-21T12:35:24.697Z,4.27
2023-05-21T12:37:53.544Z,4.80
2023-05-21T12:40:22.349Z,5.30
2023-05-21T12:42:52.053Z,4.80
2023-05-21T12:45:22.773Z,5.13
2023-05-21T12:47:56.393Z,4.33
2023-05-21T12:50:26.675Z,4.70
2023-05-21T12:53:00.151Z,4.43
2023-05-21T12:55:28.743Z,4.93
2023-05-21T12:58:04.523Z,4.30
2023-05-21T13:00:34.360Z,4.30
2023-05-21T13:03:04.586Z,4.57
2023-05-21T13:05:34.740Z,4.50
2023-05-21T13:08:06.668Z,5.30
2023-05-21T13:10:35.443Z,5.80
2023-05-21T13:13:04.042Z,5.40
2023-05-21T13:15:34.642Z,4.57
2023-05-21T13:18:03.835Z,4.60
2023-05-21T13:20:32.351Z,4.43
2023-05-21T13:23:04.796Z,4.07
2023-05-21T13:25:34.396Z,4.40
2023-05-21T13:28:03.415Z,4.20
2023-05-21T13:30:33.306Z,4.83
2023-05-21T13:33:01.934Z,4.63
2023-05-21T13:35:32.293Z,5.03
2023-05-21T13:38:02.113Z,4.57
2023-05-21T13:40:30.902Z,4.37
2023-05-21T13:42:59.828Z,4.50
2023-05-21T13:45:29.368Z,4.70
2023-05-21T13:47:58.172Z,4.50
2023-05-21T13:50:26.724Z,4.07
2023-05-21T13:52:55.140Z,4.80
2023-05-21T13:55:25.014Z,4.30
2023-05-21T13:57:53.499Z,4.17
2023-05-21T14:00:22.204Z,3.77
2023-05-21T14:02:51.124Z,4.33
2023-05-21T14:05:19.747Z,4.70
2023-05-21T14:07:48.428Z,4.60
2023-05-21T14:10:17.090Z,4.27
2023-05-21T14:12:47.337Z,4.47
2023-05-21T14:15:16.242Z,4.00
2023-05-21T14:17:44.687Z,4.00
2023-05-21T14:20:13.947Z,4.00
2023-05-21T14:22:42.414Z,4.57
2023-05-21T14:25:11.450Z,4.53
2023-05-21T14:27:39.855Z,4.30
2023-05-21T14:30:10.551Z,4.20
2023-05-21T14:32:39.149Z,4.70
2023-05-21T14:35:07.886Z,5.13
2023-05-21T14:37:36.482Z,5.13
2023-05-21T14:40:05.670Z,7.73
2023-05-21T14:42:35.678Z,5.00
2023-05-21T14:45:17.549Z,5.20
2023-05-21T14:47:48.886Z,4.63
2023-05-21T14:50:18.199Z,5.13
2023-05-21T14:52:46.786Z,5.33
2023-05-21T14:55:16.888Z,5.47
2023-05-21T14:57:45.598Z,5.07
2023-05-21T15:00:14.602Z,4.80
2023-05-21T15:02:43.084Z,4.67
2023-05-21T15:05:13.128Z,5.07
2023-05-21T15:07:41.699Z,5.43
2023-05-21T15:10:11.174Z,4.73
2023-05-21T15:12:39.789Z,4.33
2023-05-21T15:15:08.713Z,4.87
2023-05-21T15:17:37.332Z,4.70
2023-05-21T15:20:06.473Z,4.90
2023-05-21T15:22:36.470Z,5.23
2023-05-21T15:25:05.301Z,4.33
2023-05-21T15:27:33.836Z,4.37
2023-05-21T15:30:02.659Z,4.07
2023-05-21T15:32:31.154Z,4.67
2023-05-21T15:34:59.810Z,4.70
2023-05-21T15:37:32.208Z,4.83
2023-05-21T15:40:02.180Z,4.10
2023-05-21T15:42:31.852Z,4.20
2023-05-21T15:45:00.567Z,4.23
2023-05-21T15:47:29.103Z,4.37
2023-05-21T15:49:58.858Z,5.10
2023-05-21T15:52:27.464Z,8.00
2023-05-21T15:54:56.079Z,4.97
2023-05-21T15:57:25.975Z,4.90
2023-05-21T15:59:54.577Z,5.43
2023-05-21T16:02:23.320Z,4.30
2023-05-21T16:04:52.256Z,5.00
2023-05-21T16:07:21.245Z,3.90
2023-05-21T16:09:49.813Z,4.10
2023-05-21T16:12:18.448Z,4.17
2023-05-21T16:14:51.422Z,3.80
2023-05-21T16:17:20.123Z,3.90
2023-05-21T16:19:48.607Z,3.50
2023-05-21T16:22:17.173Z,3.73
2023-05-21T16:24:45.670Z,3.77
2023-05-21T16:27:14.144Z,3.47
2023-05-21T16:29:42.627Z,4.10
2023-05-21T16:32:14.155Z,4.17
2023-05-21T16:34:42.752Z,4.30
2023-05-21T16:37:11.333Z,4.23
2023-05-21T16:39:39.834Z,4.10
2023-05-21T16:42:08.425Z,4.20
2023-05-21T16:44:37.966Z,4.60
2023-05-21T16:47:06.661Z,3.90
2023-05-21T16:49:36.525Z,4.50
2023-05-21T16:52:05.404Z,4.00
2023-05-21T16:54:33.895Z,4.50
2023-05-21T16:57:03.064Z,3.87
2023-05-21T16:59:32.246Z,3.87
2023-05-21T17:02:02.783Z,3.63
2023-05-21T17:04:31.365Z,4.23
2023-05-21T17:07:01.519Z,4.17
2023-05-21T17:09:30.193Z,4.40
2023-05-21T17:11:58.716Z,4.07
2023-05-21T17:14:34.323Z,3.60
2023-05-21T17:17:03.465Z,4.33
2023-05-21T17:19:32.068Z,3.70
2023-05-21T17:22:02.009Z,4.10
2023-05-21T17:24:30.916Z,3.87
2023-05-21T17:26:59.567Z,3.93
2023-05-21T17:29:29.125Z,4.20
2023-05-21T17:31:57.615Z,4.27
2023-05-21T17:34:29.375Z,4.20
2023-05-21T17:36:58.058Z,3.70
2023-05-21T17:39:28.239Z,3.57
2023-05-21T17:41:57.109Z,4.37
2023-05-21T17:44:25.670Z,4.10
2023-05-21T17:46:54.109Z,3.80
2023-05-21T17:49:22.699Z,5.00
2023-05-21T17:51:51.344Z,3.77
2023-05-21T17:54:21.377Z,4.20
2023-05-21T17:56:51.192Z,4.10
2023-05-21T17:59:21.220Z,4.90
2023-05-21T18:01:49.877Z,4.40
2023-05-21T18:04:18.474Z,4.37
2023-05-21T18:06:46.920Z,4.30
2023-05-21T18:09:15.628Z,4.17
2023-05-21T18:11:44.907Z,4.27
2023-05-21T18:14:14.853Z,4.90
2023-05-21T18:16:43.272Z,4.20
2023-05-21T18:19:11.806Z,4.63
2023-05-21T18:21:40.425Z,4.60
2023-05-21T18:24:09.196Z,4.50
2023-05-21T18:26:37.680Z,4.90
2023-05-21T18:29:06.192Z,4.57
2023-05-21T18:31:35.984Z,4.47
2023-05-21T18:34:04.463Z,4.50
2023-05-21T18:36:39.122Z,4.83
2023-05-21T18:39:08.101Z,4.77
2023-05-21T18:41:37.423Z,5.37
2023-05-21T18:44:07.128Z,5.00
2023-05-21T18:46:37.712Z,4.40
2023-05-21T18:49:06.850Z,4.60
2023-05-21T18:51:35.583Z,4.87
2023-05-21T18:54:04.246Z,5.30
2023-05-21T18:56:32.736Z,5.40
2023-05-21T18:59:01.274Z,4.73
2023-05-21T19:01:30.182Z,5.00
2023-05-21T19:04:00.226Z,5.10
2023-05-21T19:06:28.657Z,4.80
2023-05-21T19:08:57.147Z,4.60
2023-05-21T19:11:30.939Z,4.90
2023-05-21T19:13:59.457Z,5.17
2023-05-21T19:16:27.979Z,5.80
2023-05-21T19:18:56.520Z,5.10
2023-05-21T19:21:26.518Z,6.07
2023-05-21T19:23:55.013Z,5.53
2023-05-21T19:26:23.793Z,5.30
2023-05-21T19:28:53.892Z,5.73
2023-05-21T19:31:22.664Z,6.10
2023-05-21T19:33:51.379Z,6.43
2023-05-21T19:36:20.386Z,6.33
2023-05-21T19:38:50.302Z,5.70
2023-05-21T19:41:18.792Z,6.00
2023-05-21T19:43:48.664Z,6.43
2023-05-21T19:46:21.082Z,5.87
2023-05-21T19:48:51.797Z,5.87
2023-05-21T19:51:20.787Z,6.40
2023-05-21T19:53:54.299Z,5.93
2023-05-21T19:56:23.347Z,6.03
2023-05-21T19:58:51.792Z,5.93
2023-05-21T20:01:23.584Z,5.70
2023-05-21T20:03:52.546Z,6.60
2023-05-21T20:06:21.224Z,7.17
2023-05-21T20:08:49.805Z,7.07
2023-05-21T20:11:21.440Z,6.90
2023-05-21T20:13:53.511Z,7.63
2023-05-21T20:16:23.446Z,7.13
2023-05-21T20:18:58.162Z,7.10
2023-05-21T20:21:32.010Z,7.17
2023-05-21T20:24:00.737Z,8.00
2023-05-21T20:26:35.492Z,7.27
2023-05-21T20:29:04.116Z,7.70
2023-05-21T20:31:33.073Z,7.73
2023-05-21T20:34:08.671Z,7.60
2023-05-21T20:36:40.637Z,7.33
2023-05-21T20:39:10.744Z,9.03
2023-05-21T20:41:44.849Z,7.80
2023-05-21T20:44:13.871Z,7.63
2023-05-21T20:46:42.862Z,8.67
2023-05-21T20:49:12.002Z,7.83
2023-05-21T20:51:41.575Z,8.20
2023-05-21T20:54:13.064Z,7.83
2023-05-21T20:56:45.179Z,8.67
2023-05-21T20:59:13.777Z,9.03
2023-05-21T21:01:45.620Z,8.37
2023-05-21T21:04:14.130Z,7.70
2023-05-21T21:06:42.920Z,8.97
2023-05-21T21:09:11.401Z,8.20
2023-05-21T21:11:39.871Z,7.37
2023-05-21T21:14:09.885Z,7.93
2023-05-21T21:16:38.488Z,7.47
2023-05-21T21:19:08.230Z,8.80
2023-05-21T21:21:37.401Z,7.70
2023-05-21T21:24:07.262Z,8.13
2023-05-21T21:26:35.983Z,8.37
2023-05-21T21:29:04.647Z,7.90
2023-05-21T21:31:34.576Z,7.73
2023-05-21T21:34:03.106Z,8.97
2023-05-21T21:36:31.845Z,8.30
2023-05-21T21:39:00.853Z,8.53
2023-05-21T21:41:31.462Z,9.10
2023-05-21T21:43:59.870Z,8.77
2023-05-21T21:46:28.456Z,8.70
2023-05-21T21:48:59.267Z,9.13
2023-05-21T21:51:27.864Z,9.23
2023-05-21T21:53:56.344Z,9.63
2023-05-21T21:56:24.947Z,8.87
2023-05-21T21:58:53.441Z,9.60
2023-05-21T22:01:22.086Z,9.73
2023-05-21T22:03:50.565Z,9.70
2023-05-21T22:06:21.129Z,9.53
2023-05-21T22:08:50.304Z,9.33
2023-05-21T22:11:19.090Z,9.03
2023-05-21T22:13:47.825Z,9.27
2023-05-21T22:16:16.748Z,9.20
2023-05-21T22:18:46.410Z,9.60
2023-05-21T22:21:18.363Z,9.13
2023-05-21T22:23:52.039Z,9.73
2023-05-21T22:26:21.990Z,9.57
2023-05-21T22:28:50.646Z,9.83
2023-05-21T22:31:19.264Z,9.80
2023-05-21T22:33:47.868Z,9.90
2023-05-21T22:36:16.456Z,9.57
2023-05-21T22:38:45.148Z,9.73
2023-05-21T22:41:15.026Z,10.10
2023-05-21T22:43:43.814Z,9.90
2023-05-21T22:46:12.970Z,9.43
2023-05-21T22:48:41.988Z,9.63
2023-05-21T22:51:11.485Z,9.80
2023-05-21T22:53:40.061Z,9.67
2023-05-21T22:56:08.690Z,9.83
2023-05-21T22:58:38.615Z,9.30
2023-05-21T23:01:07.012Z,10.27
2023-05-21T23:03:35.714Z,10.30
2023-05-21T23:06:04.536Z,11.37
2023-05-21T23:08:33.043Z,10.87
2023-05-21T23:11:01.476Z,10.40
2023-05-21T23:13:29.903Z,10.83
2023-05-21T23:15:59.771Z,10.50
2023-05-21T23:18:28.234Z,10.53
2023-05-21T23:20:57.140Z,11.00
2023-05-21T23:23:25.725Z,10.50
2023-05-21T23:25:57.524Z,10.50
2023-05-21T23:28:26.112Z,11.30
2023-05-21T23:30:54.713Z,11.90
2023-05-21T23:33:24.515Z,11.93
2023-05-21T23:35:53.115Z,10.70
2023-05-21T23:38:21.465Z,11.90
2023-05-21T23:40:49.935Z,10.43
2023-05-21T23:43:18.280Z,11.97
2023-05-21T23:45:46.802Z,12.10
2023-05-21T23:48:15.233Z,11.53
2023-05-21T23:50:45.020Z,11.53
2023-05-21T23:53:13.484Z,12.87
2023-05-21T23:55:42.026Z,12.87
2023-05-21T23:58:10.506Z,12.43
